Desborough, United Kingdom
Current Conditions -  °F | °C
As of 12:50 PM on Thursday 27 Nov 2014 (Local Time) from EGXT Reporting Station
Broken Clouds Broken Clouds  
Wind Chill: 44°   Ceiling: 200
Heat Index: 48°   Visibility: 6mi
Dew Point: 48°   Wind: 9mph
Humidity: 100%   Direction: 190°S
Pressure: 29.59"   Gusts: NA
Location:  52.44°N, 0.82°W
Report Text: EGXT 271250Z 19008KT 9999 BKN002 BKN013 09/09 Q1002 AMB
Loading
Personal Weather Stations






























Interactive Weather Map New forecast layout! Learn more

10-Day Weather Forecast

Advertisements
Track Severe Weather on mobile